Time;durP1;ratioP1;P1;durP2;ratioP2;P2;SDS_P1;SDS_P2;PMS_P1;PMS_P2;Temp;Humidity;BMP_temperature;BMP_pressure;BME280_temperature;BME280_humidity;BME280_pressure;Samples;Min_cycle;Max_cycle;Signal;HPM_P1;HPM_P2
2024/02/15 00:00:09;;;;;;;28.97;16.07;;;;;;;;;;5125073;27;317385;-79
2024/02/15 00:02:36;;;;;;;24.00;14.30;;;;;;;;;;5104562;27;317868;-80
2024/02/15 00:05:05;;;;;;;21.07;12.23;;;;;;;;;;5124739;27;318325;-78
2024/02/15 00:07:36;;;;;;;22.20;12.87;;;;;;;;;;5111723;27;319997;-78
2024/02/15 00:10:05;;;;;;;20.37;12.30;;;;;;;;;;5124192;27;317813;-78
2024/02/15 00:12:33;;;;;;;16.57;12.13;;;;;;;;;;5110413;27;317628;-78
2024/02/15 00:15:00;;;;;;;16.73;11.10;;;;;;;;;;5125426;27;341883;-78
2024/02/15 00:17:30;;;;;;;19.27;12.17;;;;;;;;;;5103107;27;317766;-78
2024/02/15 00:19:59;;;;;;;24.47;11.83;;;;;;;;;;5132171;27;318195;-78
2024/02/15 00:22:26;;;;;;;26.40;12.50;;;;;;;;;;5122194;27;322791;-79
2024/02/15 00:24:54;;;;;;;26.40;13.53;;;;;;;;;;5127996;27;317652;-79
2024/02/15 00:27:22;;;;;;;18.40;11.17;;;;;;;;;;5145347;27;316321;-78
2024/02/15 00:29:50;;;;;;;14.83;8.43;;;;;;;;;;5130915;27;417380;-78
2024/02/15 00:32:18;;;;;;;9.40;6.93;;;;;;;;;;5145550;27;314103;-77
2024/02/15 00:34:48;;;;;;;10.00;6.73;;;;;;;;;;5124744;27;314123;-77
2024/02/15 00:37:16;;;;;;;12.10;7.70;;;;;;;;;;5142070;27;315682;-77
2024/02/15 00:39:45;;;;;;;9.63;7.43;;;;;;;;;;5118579;27;317323;-78
2024/02/15 00:42:12;;;;;;;18.10;10.63;;;;;;;;;;5124703;27;314626;-79
2024/02/15 00:44:40;;;;;;;16.00;10.47;;;;;;;;;;5106354;27;318151;-78
2024/02/15 00:47:08;;;;;;;14.40;10.17;;;;;;;;;;5113816;27;317968;-79
2024/02/15 00:49:37;;;;;;;18.30;10.20;;;;;;;;;;5111309;27;318003;-78
2024/02/15 00:52:07;;;;;;;17.57;10.43;;;;;;;;;;5122736;27;318389;-79
2024/02/15 00:54:36;;;;;;;18.33;10.43;;;;;;;;;;5107088;27;317434;-79
2024/02/15 00:57:05;;;;;;;17.40;10.73;;;;;;;;;;5122373;27;317520;-78
2024/02/15 00:59:35;;;;;;;23.87;13.53;;;;;;;;;;5112762;27;318231;-79
2024/02/15 01:02:02;;;;;;;21.60;13.93;;;;;;;;;;5124179;27;317652;-79
2024/02/15 01:04:30;;;;;;;22.60;14.10;;;;;;;;;;5110431;27;329102;-78
2024/02/15 01:06:58;;;;;;;23.07;15.23;;;;;;;;;;5117608;27;317875;-79
2024/02/15 01:09:32;;;;;;;26.70;16.37;;;;;;;;;;5109352;27;317432;-78
2024/02/15 01:12:00;;;;;;;35.20;18.60;;;;;;;;;;5123567;27;317423;-78
2024/02/15 01:14:30;;;;;;;29.23;17.10;;;;;;;;;;5113623;27;317655;-78
2024/02/15 01:16:58;;;;;;;24.10;14.27;;;;;;;;;;5117881;27;318316;-79
2024/02/15 01:19:25;;;;;;;15.57;11.37;;;;;;;;;;5112441;27;318278;-79
2024/02/15 01:21:53;;;;;;;18.60;12.50;;;;;;;;;;5124238;27;317745;-79
2024/02/15 01:24:21;;;;;;;20.50;13.20;;;;;;;;;;5122867;27;318342;-79
2024/02/15 01:26:50;;;;;;;19.37;11.53;;;;;;;;;;5102239;27;417227;-78
2024/02/15 01:29:17;;;;;;;21.03;11.80;;;;;;;;;;5123055;27;354702;-78
2024/02/15 01:31:46;;;;;;;20.03;12.30;;;;;;;;;;5111895;27;318424;-79
2024/02/15 01:34:17;;;;;;;17.97;9.17;;;;;;;;;;5125041;27;317518;-78
2024/02/15 01:36:47;;;;;;;14.10;10.63;;;;;;;;;;5104723;27;317424;-79
2024/02/15 01:39:13;;;;;;;21.33;12.10;;;;;;;;;;5122818;27;318427;-78
2024/02/15 01:41:40;;;;;;;24.50;13.17;;;;;;;;;;5092293;27;336382;-78
2024/02/15 01:44:10;;;;;;;24.13;16.23;;;;;;;;;;5125218;27;318231;-78
2024/02/15 01:46:37;;;;;;;17.37;11.97;;;;;;;;;;5106018;27;318134;-78
2024/02/15 01:49:07;;;;;;;17.23;10.50;;;;;;;;;;5125751;27;317950;-78
2024/02/15 01:51:37;;;;;;;19.43;12.17;;;;;;;;;;5112347;27;318249;-78
2024/02/15 01:54:05;;;;;;;22.27;12.77;;;;;;;;;;5123024;27;318563;-78
2024/02/15 01:56:36;;;;;;;28.13;17.63;;;;;;;;;;5111305;27;317707;-79
2024/02/15 01:59:06;;;;;;;27.40;15.33;;;;;;;;;;5124442;27;317593;-78
2024/02/15 02:01:36;;;;;;;25.07;14.30;;;;;;;;;;5112380;27;318401;-78
2024/02/15 02:04:07;;;;;;;18.50;12.30;;;;;;;;;;5123802;27;317722;-78
2024/02/15 02:06:38;;;;;;;18.57;13.07;;;;;;;;;;5107437;27;317826;-79
2024/02/15 02:09:07;;;;;;;19.90;12.87;;;;;;;;;;5125757;27;318127;-79
2024/02/15 02:11:37;;;;;;;28.17;14.77;;;;;;;;;;5114089;27;317697;-79
2024/02/15 02:14:06;;;;;;;28.67;17.97;;;;;;;;;;5125466;27;317603;-79
2024/02/15 02:16:39;;;;;;;34.40;21.10;;;;;;;;;;5109976;27;317997;-79
2024/02/15 02:19:08;;;;;;;34.33;19.07;;;;;;;;;;5123054;27;318062;-79
2024/02/15 02:21:39;;;;;;;28.60;15.30;;;;;;;;;;5115719;27;330733;-79
2024/02/15 02:24:16;;;;;;;25.77;14.63;;;;;;;;;;5128525;27;317608;-79
2024/02/15 02:26:50;;;;;;;28.70;11.50;;;;;;;;;;5112260;27;318319;-79
2024/02/15 02:29:17;;;;;;;21.93;12.70;;;;;;;;;;5129924;27;339851;-79
2024/02/15 02:31:44;;;;;;;17.47;10.33;;;;;;;;;;5121442;27;317604;-79
2024/02/15 02:34:14;;;;;;;15.30;9.57;;;;;;;;;;5131766;27;316944;-79
2024/02/15 02:36:45;;;;;;;14.60;9.70;;;;;;;;;;5110909;27;331152;-79
2024/02/15 02:39:12;;;;;;;12.10;9.30;;;;;;;;;;5126632;27;315673;-79
2024/02/15 02:41:40;;;;;;;14.13;9.30;;;;;;;;;;5113777;27;317028;-79
2024/02/15 02:44:09;;;;;;;13.63;8.47;;;;;;;;;;5125282;27;316680;-79
2024/02/15 02:46:36;;;;;;;11.50;6.90;;;;;;;;;;5107615;27;316749;-79
2024/02/15 02:49:07;;;;;;;11.37;6.70;;;;;;;;;;5124262;27;316572;-78
2024/02/15 02:51:34;;;;;;;9.70;7.07;;;;;;;;;;5112999;27;316225;-79
2024/02/15 02:54:05;;;;;;;16.40;10.17;;;;;;;;;;5125700;27;314523;-79
2024/02/15 02:56:33;;;;;;;16.87;11.17;;;;;;;;;;5125026;27;316152;-78
2024/02/15 02:58:59;;;;;;;14.53;9.10;;;;;;;;;;5137431;27;317894;-79
2024/02/15 03:01:29;;;;;;;11.43;7.60;;;;;;;;;;5126397;27;360312;-78
2024/02/15 03:03:57;;;;;;;9.20;6.53;;;;;;;;;;5137578;27;315057;-79
2024/02/15 03:06:27;;;;;;;11.93;6.73;;;;;;;;;;5116801;27;315583;-79
2024/02/15 03:08:55;;;;;;;10.87;6.63;;;;;;;;;;5115825;27;316187;-80
2024/02/15 03:11:22;;;;;;;10.63;7.23;;;;;;;;;;5122164;27;315576;-79
2024/02/15 03:13:51;;;;;;;11.20;6.67;;;;;;;;;;5108586;27;418104;-79
2024/02/15 03:16:22;;;;;;;12.37;7.07;;;;;;;;;;5123508;27;316424;-80
2024/02/15 03:18:51;;;;;;;13.40;8.20;;;;;;;;;;5102962;27;417843;-79
2024/02/15 03:21:20;;;;;;;13.03;7.67;;;;;;;;;;5123888;27;316493;-79
2024/02/15 03:23:48;;;;;;;15.13;9.97;;;;;;;;;;5111977;27;317158;-79
2024/02/15 03:26:15;;;;;;;16.80;12.30;;;;;;;;;;5122526;27;316792;-79
2024/02/15 03:28:42;;;;;;;16.67;11.70;;;;;;;;;;5094608;27;317644;-79
2024/02/15 03:31:11;;;;;;;18.87;10.93;;;;;;;;;;5123597;27;317758;-79
2024/02/15 03:33:39;;;;;;;16.57;10.83;;;;;;;;;;5112186;27;318220;-79
2024/02/15 03:36:07;;;;;;;25.67;15.53;;;;;;;;;;5124356;27;329656;-79
2024/02/15 03:38:36;;;;;;;43.13;18.77;;;;;;;;;;5105549;27;317834;-81
2024/02/15 03:41:05;;;;;;;34.47;18.33;;;;;;;;;;5122389;27;317293;-80
2024/02/15 03:43:36;;;;;;;41.57;18.93;;;;;;;;;;5111474;27;318145;-80
2024/02/15 03:46:02;;;;;;;36.33;19.83;;;;;;;;;;5123249;27;318358;-79
2024/02/15 03:48:30;;;;;;;36.57;21.77;;;;;;;;;;5113258;27;317765;-80
2024/02/15 03:50:59;;;;;;;38.47;20.57;;;;;;;;;;5116272;27;317547;-79
2024/02/15 03:53:30;;;;;;;29.63;16.77;;;;;;;;;;5111123;27;318280;-79
2024/02/15 03:55:57;;;;;;;39.43;20.20;;;;;;;;;;5123822;27;358171;-80
2024/02/15 03:58:27;;;;;;;30.20;16.60;;;;;;;;;;5116600;27;317999;-78
2024/02/15 04:00:56;;;;;;;27.40;15.87;;;;;;;;;;5119748;27;317634;-78
2024/02/15 04:03:23;;;;;;;27.40;17.13;;;;;;;;;;5128234;27;317984;-78
2024/02/15 04:05:51;;;;;;;26.70;17.40;;;;;;;;;;5082409;27;417390;-79
2024/02/15 04:08:19;;;;;;;22.80;15.20;;;;;;;;;;5123764;27;318155;-79
2024/02/15 04:10:51;;;;;;;28.43;17.07;;;;;;;;;;5105601;27;318909;-80
2024/02/15 04:13:18;;;;;;;24.53;15.20;;;;;;;;;;5124152;27;323471;-79
2024/02/15 04:15:47;;;;;;;21.93;13.37;;;;;;;;;;5112791;27;318327;-79
2024/02/15 04:18:14;;;;;;;20.00;14.70;;;;;;;;;;5124590;27;317500;-79
2024/02/15 04:20:44;;;;;;;24.00;13.90;;;;;;;;;;5102561;27;317937;-78
2024/02/15 04:23:13;;;;;;;34.73;20.27;;;;;;;;;;5123692;27;316833;-79
2024/02/15 04:25:40;;;;;;;49.23;24.43;;;;;;;;;;5112444;27;320480;-79
2024/02/15 04:28:10;;;;;;;73.00;32.97;;;;;;;;;;5124004;27;318109;-78
2024/02/15 04:30:40;;;;;;;71.27;35.30;;;;;;;;;;5103609;27;317946;-78
2024/02/15 04:33:08;;;;;;;84.50;40.17;;;;;;;;;;5122164;27;316726;-78
2024/02/15 04:35:37;;;;;;;82.43;40.77;;;;;;;;;;5112281;27;317893;-79
2024/02/15 04:38:08;;;;;;;80.47;37.83;;;;;;;;;;5122081;27;317522;-78
2024/02/15 04:40:35;;;;;;;66.13;36.57;;;;;;;;;;5102633;27;316607;-78
2024/02/15 04:43:04;;;;;;;80.00;42.17;;;;;;;;;;5122727;27;317697;-79
2024/02/15 04:45:32;;;;;;;82.67;40.23;;;;;;;;;;5092559;27;317605;-79
2024/02/15 04:48:01;;;;;;;73.90;36.83;;;;;;;;;;5121906;27;316688;-79
2024/02/15 04:50:30;;;;;;;73.33;37.80;;;;;;;;;;5112176;27;317539;-78
2024/02/15 04:52:56;;;;;;;80.33;44.53;;;;;;;;;;5115472;27;318191;-78
2024/02/15 04:55:23;;;;;;;102.93;49.53;;;;;;;;;;5109303;27;317377;-79
2024/02/15 04:57:59;;;;;;;84.20;47.67;;;;;;;;;;5123831;27;317810;-80
2024/02/15 05:00:28;;;;;;;73.37;40.87;;;;;;;;;;5112564;27;318046;-79
2024/02/15 05:02:56;;;;;;;56.77;34.53;;;;;;;;;;5114945;27;318201;-79
2024/02/15 05:05:24;;;;;;;53.20;29.93;;;;;;;;;;5122911;27;317305;-79
2024/02/15 05:07:52;;;;;;;43.30;27.77;;;;;;;;;;5080951;27;417260;-79
2024/02/15 05:10:20;;;;;;;53.70;28.90;;;;;;;;;;5123916;27;318136;-79
2024/02/15 05:12:48;;;;;;;45.33;27.60;;;;;;;;;;5105270;27;318253;-79
2024/02/15 05:15:17;;;;;;;46.53;27.43;;;;;;;;;;5122877;27;318191;-79
2024/02/15 05:17:48;;;;;;;46.30;27.57;;;;;;;;;;5109638;27;318325;-79
2024/02/15 05:20:20;;;;;;;48.23;26.97;;;;;;;;;;5120843;27;341946;-79
2024/02/15 05:22:48;;;;;;;58.33;29.83;;;;;;;;;;5100715;27;318367;-79
2024/02/15 05:25:22;;;;;;;56.17;29.37;;;;;;;;;;5122222;27;318180;-79
2024/02/15 05:27:50;;;;;;;47.70;26.23;;;;;;;;;;5109843;27;417712;-79
2024/02/15 05:30:18;;;;;;;42.63;25.27;;;;;;;;;;5124650;27;317870;-79
2024/02/15 05:32:47;;;;;;;47.97;24.13;;;;;;;;;;5101425;27;357167;-79
2024/02/15 05:35:20;;;;;;;43.37;22.90;;;;;;;;;;5123765;27;317934;-78
2024/02/15 05:37:47;;;;;;;38.00;22.33;;;;;;;;;;5109875;27;318273;-78
2024/02/15 05:40:15;;;;;;;32.63;18.67;;;;;;;;;;5103353;27;318362;-80
2024/02/15 05:42:45;;;;;;;49.70;21.40;;;;;;;;;;5102811;27;318059;-77
2024/02/15 05:45:34;;;;;;;158.17;57.37;;;;;;;;;;5123397;27;318093;-77
2024/02/15 05:48:06;;;;;;;130.97;48.67;;;;;;;;;;5101036;27;419745;-78
2024/02/15 05:50:34;;;;;;;111.27;45.77;;;;;;;;;;5122829;27;319068;-79
2024/02/15 05:53:03;;;;;;;262.17;97.00;;;;;;;;;;5108014;27;418611;-79
2024/02/15 05:55:34;;;;;;;171.17;72.93;;;;;;;;;;5120670;27;319557;-79
2024/02/15 05:58:03;;;;;;;184.07;77.77;;;;;;;;;;5100630;27;318315;-78
2024/02/15 06:00:30;;;;;;;110.27;53.87;;;;;;;;;;5124371;27;319149;-78
2024/02/15 06:03:01;;;;;;;161.20;71.87;;;;;;;;;;5110263;27;353095;-78
2024/02/15 06:05:29;;;;;;;116.77;56.93;;;;;;;;;;5121899;27;356114;-78
2024/02/15 06:07:58;;;;;;;98.10;50.70;;;;;;;;;;5103139;27;318861;-78
2024/02/15 06:10:25;;;;;;;84.80;47.13;;;;;;;;;;5114570;27;318549;-78
2024/02/15 06:12:54;;;;;;;85.23;42.33;;;;;;;;;;5102726;27;318146;-78
2024/02/15 06:15:23;;;;;;;77.83;37.27;;;;;;;;;;5123469;27;316591;-78
2024/02/15 06:17:51;;;;;;;51.97;31.80;;;;;;;;;;5095952;27;317751;-78
2024/02/15 06:20:19;;;;;;;47.27;29.57;;;;;;;;;;5123276;27;318072;-79
2024/02/15 06:22:48;;;;;;;47.03;23.23;;;;;;;;;;5111787;27;317271;-78
2024/02/15 06:25:20;;;;;;;30.67;21.60;;;;;;;;;;5114175;27;316802;-80
2024/02/15 06:27:48;;;;;;;49.63;24.77;;;;;;;;;;5105747;27;318380;-79
2024/02/15 06:41:19;;;;;;;175.97;87.83;;;;;;;;;;5101120;27;389838;-79
2024/02/15 06:43:49;;;;;;;175.07;91.40;;;;;;;;;;5094694;27;318659;-79
2024/02/15 06:46:18;;;;;;;124.97;65.63;;;;;;;;;;5114812;27;319306;-78
2024/02/15 06:48:46;;;;;;;140.40;72.97;;;;;;;;;;5092618;27;318431;-79
2024/02/15 06:51:16;;;;;;;126.00;66.53;;;;;;;;;;5127470;27;318840;-80
2024/02/15 06:53:42;;;;;;;98.73;58.23;;;;;;;;;;5112203;27;317803;-79
2024/02/15 06:56:11;;;;;;;87.87;51.50;;;;;;;;;;5117309;27;319201;-79
2024/02/15 06:58:41;;;;;;;106.00;49.97;;;;;;;;;;5111559;27;329902;-79
2024/02/15 07:01:08;;;;;;;91.73;47.87;;;;;;;;;;5114580;27;318895;-78
2024/02/15 07:03:40;;;;;;;96.10;51.40;;;;;;;;;;5124234;27;318438;-78
2024/02/15 07:06:09;;;;;;;86.83;43.37;;;;;;;;;;5107394;27;416154;-78
2024/02/15 07:08:36;;;;;;;64.33;39.27;;;;;;;;;;5113465;27;317803;-78
2024/02/15 07:11:04;;;;;;;63.60;36.30;;;;;;;;;;5080399;27;417357;-78
2024/02/15 07:13:33;;;;;;;64.43;40.60;;;;;;;;;;5103853;27;317574;-79
2024/02/15 07:16:01;;;;;;;56.63;35.17;;;;;;;;;;5081553;27;317498;-78
2024/02/15 07:18:28;;;;;;;36.93;25.73;;;;;;;;;;5113152;27;318335;-79
2024/02/15 07:20:56;;;;;;;44.27;24.10;;;;;;;;;;5099034;27;348520;-79
2024/02/15 07:23:25;;;;;;;32.17;22.40;;;;;;;;;;5104017;27;317735;-79
2024/02/15 07:25:53;;;;;;;29.97;20.30;;;;;;;;;;5079856;27;316771;-79
2024/02/15 07:28:22;;;;;;;30.80;18.30;;;;;;;;;;5117901;27;316656;-81
2024/02/15 07:30:54;;;;;;;23.93;16.30;;;;;;;;;;5092385;27;318315;-79
2024/02/15 07:33:23;;;;;;;21.53;15.50;;;;;;;;;;5125476;27;317558;-80
2024/02/15 07:35:51;;;;;;;19.97;14.03;;;;;;;;;;5096965;27;317674;-79
2024/02/15 07:38:22;;;;;;;20.73;13.70;;;;;;;;;;5124322;27;317641;-80
2024/02/15 07:40:50;;;;;;;15.73;11.50;;;;;;;;;;5110545;27;334575;-81
2024/02/15 07:43:17;;;;;;;17.17;11.70;;;;;;;;;;5124982;27;318366;-82
2024/02/15 07:45:43;;;;;;;18.67;10.87;;;;;;;;;;5097620;27;317765;-81
2024/02/15 07:48:11;;;;;;;14.23;11.27;;;;;;;;;;5123887;27;317710;-80
2024/02/15 07:50:43;;;;;;;20.37;10.37;;;;;;;;;;5101491;27;318401;-80
2024/02/15 07:53:11;;;;;;;15.77;11.90;;;;;;;;;;5114182;27;318165;-81
2024/02/15 07:55:38;;;;;;;16.03;12.53;;;;;;;;;;5101544;27;317590;-80
2024/02/15 07:58:06;;;;;;;15.33;10.90;;;;;;;;;;5126361;27;318020;-80
2024/02/15 08:00:35;;;;;;;14.03;9.10;;;;;;;;;;5106180;27;316868;-80
2024/02/15 08:03:03;;;;;;;11.93;7.97;;;;;;;;;;5112394;27;415416;-81
2024/02/15 08:05:31;;;;;;;8.87;7.07;;;;;;;;;;5121734;27;343581;-80
2024/02/15 08:08:04;;;;;;;15.80;8.97;;;;;;;;;;5105021;27;315185;-80
2024/02/15 08:10:31;;;;;;;10.73;8.47;;;;;;;;;;5127297;27;316451;-79
2024/02/15 08:12:58;;;;;;;13.80;8.50;;;;;;;;;;5124432;27;317058;-80
2024/02/15 08:15:27;;;;;;;11.40;6.97;;;;;;;;;;5135068;27;315563;-80
2024/02/15 08:17:56;;;;;;;14.10;6.97;;;;;;;;;;5116360;27;317107;-79
2024/02/15 08:20:22;;;;;;;10.30;7.03;;;;;;;;;;5129685;27;315616;-81
2024/02/15 08:22:50;;;;;;;12.03;8.43;;;;;;;;;;5099974;27;317029;-80
2024/02/15 08:25:21;;;;;;;41.47;24.00;;;;;;;;;;5112982;27;316328;-80
2024/02/15 08:27:50;;;;;;;12.83;7.90;;;;;;;;;;5072177;27;318432;-80
2024/02/15 08:30:20;;;;;;;16.87;11.43;;;;;;;;;;5125009;27;315664;-80
2024/02/15 08:32:47;;;;;;;10.60;6.87;;;;;;;;;;5111550;27;339139;-80
2024/02/15 08:35:15;;;;;;;16.53;10.90;;;;;;;;;;5114473;27;316070;-80
2024/02/15 08:37:47;;;;;;;8.37;5.43;;;;;;;;;;5092409;27;323782;-80
2024/02/15 08:40:15;;;;;;;19.70;13.83;;;;;;;;;;5114255;27;315633;-80
2024/02/15 08:42:45;;;;;;;14.73;6.33;;;;;;;;;;5103978;27;317634;-79
2024/02/15 08:45:13;;;;;;;9.10;6.27;;;;;;;;;;5113837;27;315710;-78
2024/02/15 08:47:42;;;;;;;9.07;6.30;;;;;;;;;;5104563;27;316480;-79
2024/02/15 08:50:10;;;;;;;7.10;5.47;;;;;;;;;;5126282;27;333589;-80
2024/02/15 08:52:40;;;;;;;6.90;5.17;;;;;;;;;;5110574;27;316106;-79
2024/02/15 08:55:10;;;;;;;7.93;5.70;;;;;;;;;;5123904;27;314513;-79
2024/02/15 08:57:40;;;;;;;6.67;5.47;;;;;;;;;;5100416;27;315829;-79
2024/02/15 09:00:16;;;;;;;7.43;4.83;;;;;;;;;;5125133;27;346441;-80
2024/02/15 09:02:44;;;;;;;17.37;5.10;;;;;;;;;;5114652;27;315299;-79
2024/02/15 09:05:13;;;;;;;8.80;6.37;;;;;;;;;;5116305;27;317034;-79
2024/02/15 09:07:42;;;;;;;20.27;10.17;;;;;;;;;;5105305;27;314748;-80
2024/02/15 09:10:11;;;;;;;8.67;6.97;;;;;;;;;;5124584;27;317330;-79
2024/02/15 09:12:39;;;;;;;18.30;10.97;;;;;;;;;;5113033;27;315738;-79
2024/02/15 09:15:10;;;;;;;9.27;5.77;;;;;;;;;;5124787;27;332073;-79
2024/02/15 09:17:39;;;;;;;9.00;5.40;;;;;;;;;;5119483;27;357199;-81
2024/02/15 09:20:14;;;;;;;7.30;4.90;;;;;;;;;;5108851;27;417100;-79
2024/02/15 09:22:43;;;;;;;8.10;6.03;;;;;;;;;;5103212;27;316088;-81
2024/02/15 09:25:12;;;;;;;9.43;6.43;;;;;;;;;;5124270;27;315746;-81
2024/02/15 09:27:43;;;;;;;7.53;5.83;;;;;;;;;;5107409;27;316660;-81
2024/02/15 09:30:11;;;;;;;7.93;5.40;;;;;;;;;;5126581;27;315615;-82
2024/02/15 09:32:40;;;;;;;11.53;6.53;;;;;;;;;;5112125;27;340163;-81
2024/02/15 09:35:11;;;;;;;8.03;6.17;;;;;;;;;;5126235;27;316717;-81
2024/02/15 09:37:43;;;;;;;11.10;6.00;;;;;;;;;;5124142;27;343939;-81
2024/02/15 09:40:13;;;;;;;8.23;5.23;;;;;;;;;;5100446;27;417540;-81
2024/02/15 09:42:40;;;;;;;6.10;4.90;;;;;;;;;;5104063;27;316677;-82
2024/02/15 09:45:07;;;;;;;7.50;5.50;;;;;;;;;;5127282;27;315786;-79
2024/02/15 09:47:36;;;;;;;10.10;6.47;;;;;;;;;;5126892;27;316605;-80
2024/02/15 09:52:35;;;;;;;8.37;4.77;;;;;;;;;;5126508;27;318036;-80
2024/02/15 09:55:04;;;;;;;9.73;4.23;;;;;;;;;;5102467;27;417764;-81
2024/02/15 09:57:33;;;;;;;12.10;5.43;;;;;;;;;;5127549;27;316120;-82
2024/02/15 10:00:03;;;;;;;4.97;3.50;;;;;;;;;;5100937;27;317881;-82
2024/02/15 10:02:32;;;;;;;4.57;4.13;;;;;;;;;;5126083;27;316832;-80
2024/02/15 10:05:01;;;;;;;5.37;3.67;;;;;;;;;;5116469;27;316856;-82
2024/02/15 10:07:33;;;;;;;7.93;4.17;;;;;;;;;;5128821;27;316984;-81
2024/02/15 10:10:16;;;;;;;8.50;3.90;;;;;;;;;;5106556;27;316745;-81
2024/02/15 10:12:47;;;;;;;4.00;3.30;;;;;;;;;;5115437;27;328382;-82
2024/02/15 10:15:28;;;;;;;6.13;3.50;;;;;;;;;;5128086;27;315619;-82
2024/02/15 10:17:58;;;;;;;5.30;4.10;;;;;;;;;;5109843;27;316878;-80
2024/02/15 10:20:26;;;;;;;5.33;4.07;;;;;;;;;;5127122;27;316549;-81
2024/02/15 10:23:10;;;;;;;9.47;5.03;;;;;;;;;;5105135;27;316658;-81
2024/02/15 10:25:38;;;;;;;7.67;4.47;;;;;;;;;;5127880;27;316793;-82
2024/02/15 10:28:06;;;;;;;6.80;4.30;;;;;;;;;;5123436;27;416215;-80
2024/02/15 10:30:35;;;;;;;6.03;3.03;;;;;;;;;;5142681;27;315536;-81
2024/02/15 10:33:03;;;;;;;5.63;3.43;;;;;;;;;;5130430;27;416904;-80
2024/02/15 10:35:34;;;;;;;5.20;3.77;;;;;;;;;;5135297;27;315177;-80
2024/02/15 10:38:09;;;;;;;9.73;5.67;;;;;;;;;;5111448;27;315739;-81
2024/02/15 10:40:36;;;;;;;4.73;2.97;;;;;;;;;;5121349;27;316252;-81
2024/02/15 10:43:05;;;;;;;7.13;4.80;;;;;;;;;;5115664;27;416295;-80
2024/02/15 10:45:34;;;;;;;8.27;6.07;;;;;;;;;;5129814;27;317258;-80
2024/02/15 10:48:01;;;;;;;6.73;3.60;;;;;;;;;;5103246;27;316313;-80
2024/02/15 10:50:28;;;;;;;4.73;3.00;;;;;;;;;;5128452;27;317172;-80
2024/02/15 10:52:56;;;;;;;6.93;3.27;;;;;;;;;;5118117;27;317167;-83
2024/02/15 10:55:38;;;;;;;5.97;3.90;;;;;;;;;;5119130;27;315769;-81
2024/02/15 10:58:08;;;;;;;8.33;5.70;;;;;;;;;;5114485;27;418021;-81
2024/02/15 11:00:39;;;;;;;9.37;5.73;;;;;;;;;;5130445;27;316468;-81
2024/02/15 11:03:09;;;;;;;5.33;3.27;;;;;;;;;;5113676;27;416712;-81
2024/02/15 11:05:39;;;;;;;4.87;2.40;;;;;;;;;;5116628;27;315831;-81
2024/02/15 11:08:09;;;;;;;12.73;6.70;;;;;;;;;;5095641;27;387922;-81
2024/02/15 11:10:40;;;;;;;8.53;4.30;;;;;;;;;;5128832;27;317948;-81
2024/02/15 11:13:07;;;;;;;4.30;3.03;;;;;;;;;;5115314;27;418050;-82
2024/02/15 11:15:48;;;;;;;4.37;3.83;;;;;;;;;;5129765;27;315825;-81
2024/02/15 11:18:44;;;;;;;3.33;2.50;;;;;;;;;;5113526;27;415989;-82
2024/02/15 11:21:11;;;;;;;3.97;3.00;;;;;;;;;;5112815;27;416123;-81
2024/02/15 11:23:38;;;;;;;14.33;9.20;;;;;;;;;;5125651;27;316012;-83
2024/02/15 11:26:11;;;;;;;15.27;9.73;;;;;;;;;;5108674;27;419999;-82
2024/02/15 11:28:39;;;;;;;5.03;2.97;;;;;;;;;;5116209;27;318263;-82
2024/02/15 11:31:12;;;;;;;24.33;11.63;;;;;;;;;;5119009;27;316868;-82
2024/02/15 11:33:43;;;;;;;28.97;15.03;;;;;;;;;;5113596;27;319624;-82
2024/02/15 11:36:12;;;;;;;9.00;5.33;;;;;;;;;;5117171;27;317972;-83
2024/02/15 11:38:43;;;;;;;5.17;3.50;;;;;;;;;;5116486;27;317040;-82
2024/02/15 11:41:20;;;;;;;8.07;5.00;;;;;;;;;;5119039;27;315828;-82
2024/02/15 11:43:58;;;;;;;4.60;3.43;;;;;;;;;;5108887;27;316287;-81
2024/02/15 11:46:30;;;;;;;22.83;10.37;;;;;;;;;;5127238;27;316554;-82
2024/02/15 11:48:59;;;;;;;26.23;16.37;;;;;;;;;;5115460;27;329292;-81
2024/02/15 11:51:51;;;;;;;18.37;8.37;;;;;;;;;;5125523;27;318621;-80
2024/02/15 11:54:21;;;;;;;5.43;4.43;;;;;;;;;;5047515;28;420206;-82
2024/02/15 11:57:04;;;;;;;13.80;4.80;;;;;;;;;;5051141;28;317032;-80
2024/02/15 11:59:53;;;;;;;6.33;4.70;;;;;;;;;;5053800;28;316616;-81
2024/02/15 12:18:55;;;;;;;3.87;2.87;;;;;;;;;;5133054;27;316329;-82
2024/02/15 12:21:25;;;;;;;5.57;2.93;;;;;;;;;;5143892;27;316596;-81
2024/02/15 12:23:53;;;;;;;5.70;3.37;;;;;;;;;;5126361;27;316074;-78
2024/02/15 12:26:23;;;;;;;4.10;2.75;;;;;;;;;;5145240;27;314578;-78
2024/02/15 12:28:57;;;;;;;8.45;4.30;;;;;;;;;;5134098;27;315782;-78
2024/02/15 12:31:27;;;;;;;9.23;3.90;;;;;;;;;;5143822;27;317067;-79
2024/02/15 12:34:06;;;;;;;5.63;3.20;;;;;;;;;;5102520;27;316974;-79
2024/02/15 12:36:33;;;;;;;7.27;4.20;;;;;;;;;;5124692;27;317180;-78
2024/02/15 12:39:01;;;;;;;8.75;4.22;;;;;;;;;;5112576;27;316606;-78
2024/02/15 12:41:30;;;;;;;5.23;3.17;;;;;;;;;;5124506;27;315746;-78
2024/02/15 12:44:03;;;;;;;2.93;2.33;;;;;;;;;;5112299;27;316606;-80
2024/02/15 12:46:33;;;;;;;5.50;2.33;;;;;;;;;;5133734;27;315892;-82
2024/02/15 12:49:28;;;;;;;4.30;2.60;;;;;;;;;;5116253;27;316523;-81
2024/02/15 12:52:36;;;;;;;9.30;5.43;;;;;;;;;;5101483;27;317336;-81
2024/02/15 12:55:13;;;;;;;8.03;4.43;;;;;;;;;;5119588;27;416985;-80
2024/02/15 12:57:44;;;;;;;7.23;3.57;;;;;;;;;;5116384;27;345856;-82
2024/02/15 13:00:17;;;;;;;6.90;3.90;;;;;;;;;;5136407;27;315517;-80
2024/02/15 13:02:47;;;;;;;10.17;4.77;;;;;;;;;;5126300;27;315414;-81
2024/02/15 13:05:15;;;;;;;11.57;5.37;;;;;;;;;;5137509;27;318479;-80
2024/02/15 13:07:43;;;;;;;3.93;3.20;;;;;;;;;;5108421;27;316886;-82
2024/02/15 13:10:10;;;;;;;3.50;2.47;;;;;;;;;;5131344;27;316490;-81
2024/02/15 13:12:37;;;;;;;3.20;2.90;;;;;;;;;;5115976;27;316009;-80
2024/02/15 13:15:09;;;;;;;4.87;3.20;;;;;;;;;;5124707;27;352346;-79
2024/02/15 13:17:39;;;;;;;4.30;3.00;;;;;;;;;;5122832;27;316280;-79
2024/02/15 13:20:12;;;;;;;5.83;2.93;;;;;;;;;;5111696;27;417245;-80
2024/02/15 13:22:38;;;;;;;5.73;3.40;;;;;;;;;;5112752;27;316839;-83
2024/02/15 13:25:08;;;;;;;7.33;4.27;;;;;;;;;;5124293;27;340184;-80
2024/02/15 13:27:38;;;;;;;6.30;4.33;;;;;;;;;;5123796;27;354864;-81
2024/02/15 13:30:08;;;;;;;8.77;3.97;;;;;;;;;;5112841;27;416912;-81
2024/02/15 13:32:38;;;;;;;4.70;3.40;;;;;;;;;;5128544;27;317028;-79
2024/02/15 13:35:12;;;;;;;10.10;3.13;;;;;;;;;;5113550;27;417063;-81
2024/02/15 13:37:43;;;;;;;7.87;3.90;;;;;;;;;;5113356;27;318412;-81
2024/02/15 13:40:15;;;;;;;10.33;4.13;;;;;;;;;;5125836;27;315504;-81
2024/02/15 13:42:49;;;;;;;9.80;4.53;;;;;;;;;;5109594;27;338865;-81
2024/02/15 13:45:17;;;;;;;7.53;4.00;;;;;;;;;;5127761;27;316824;-81
2024/02/15 13:47:47;;;;;;;11.00;5.90;;;;;;;;;;5113682;27;316853;-80
2024/02/15 13:50:15;;;;;;;10.00;4.37;;;;;;;;;;5125382;27;319526;-81
2024/02/15 13:52:44;;;;;;;6.23;3.60;;;;;;;;;;5122139;27;317594;-81
2024/02/15 13:55:13;;;;;;;5.83;4.13;;;;;;;;;;5142625;27;315573;-79
2024/02/15 13:57:42;;;;;;;5.70;3.97;;;;;;;;;;5120914;27;316018;-79
2024/02/15 14:00:13;;;;;;;8.27;5.03;;;;;;;;;;5140741;27;314303;-79
2024/02/15 14:02:42;;;;;;;15.47;7.57;;;;;;;;;;5121692;27;316388;-79
2024/02/15 14:05:11;;;;;;;10.93;5.70;;;;;;;;;;5129469;27;318110;-79
2024/02/15 14:07:40;;;;;;;9.37;7.00;;;;;;;;;;5111135;27;338173;-79
2024/02/15 14:10:08;;;;;;;12.87;8.57;;;;;;;;;;5125794;27;317112;-80
2024/02/15 14:12:37;;;;;;;23.30;7.70;;;;;;;;;;5106278;27;347745;-79
2024/02/15 14:15:07;;;;;;;5.93;4.47;;;;;;;;;;5125350;27;318030;-81
2024/02/15 14:17:37;;;;;;;7.97;4.90;;;;;;;;;;5114803;27;316625;-80
2024/02/15 14:20:08;;;;;;;12.77;8.13;;;;;;;;;;5126022;27;317122;-80
2024/02/15 14:22:38;;;;;;;10.13;7.03;;;;;;;;;;5103333;27;317393;-81
2024/02/15 14:25:11;;;;;;;12.40;8.10;;;;;;;;;;5126285;27;316527;-79
2024/02/15 14:27:39;;;;;;;15.80;11.70;;;;;;;;;;5112840;27;317841;-79
2024/02/15 14:33:03;;;;;;;9.03;5.43;;;;;;;;;;5079188;27;388106;-80
2024/02/15 14:35:34;;;;;;;10.63;6.90;;;;;;;;;;5112819;27;316745;-79
2024/02/15 14:38:05;;;;;;;12.90;8.40;;;;;;;;;;5124579;27;317805;-79
2024/02/15 14:40:37;;;;;;;11.47;7.40;;;;;;;;;;5108224;27;318079;-80
2024/02/15 14:43:06;;;;;;;10.23;6.20;;;;;;;;;;5125356;27;316407;-79
2024/02/15 14:45:38;;;;;;;15.80;6.30;;;;;;;;;;5115733;27;316678;-81
2024/02/15 14:48:09;;;;;;;8.47;5.30;;;;;;;;;;5126394;27;317534;-81
2024/02/15 14:50:37;;;;;;;8.93;5.93;;;;;;;;;;5108577;27;316345;-80
2024/02/15 14:53:04;;;;;;;13.97;6.33;;;;;;;;;;5125718;27;315642;-80
2024/02/15 14:55:31;;;;;;;7.43;4.87;;;;;;;;;;5113364;27;316579;-80
2024/02/15 14:58:00;;;;;;;11.27;7.20;;;;;;;;;;5125633;27;316175;-80
2024/02/15 15:00:32;;;;;;;28.73;13.90;;;;;;;;;;5114515;27;317676;-80